Archiv-/Tagesdaten

--Timestamp---	Temp	Chill	HIndex	Humid	Dewpt	 Wind 	HiWind	WindDir	Rain 	Barom	Solar	 ET  	 UV 
--------------	----	-----	------	-----	-----	------	------	-------	-----	-----	-----	-----	----
20100724 00:00	14.5	14.5	14.5	91	13.0	11	21	248	0.0	1016.4	0	0.025	0.0
20100724 00:05	14.5	14.5	14.5	91	13.0	14	24	270	0.2	1016.4	0	0.000	0.0
20100724 00:10	14.5	14.5	14.5	91	13.0	11	23	270	0.2	1016.4	0	0.000	0.0
20100724 00:15	14.4	14.4	14.4	91	13.0	13	24	270	0.0	1016.4	0	0.000	0.0
20100724 00:20	14.4	14.4	14.4	92	13.2	10	23	270	0.2	1016.4	0	0.000	0.0
20100724 00:25	14.4	14.4	14.4	92	13.1	13	24	270	0.0	1016.4	0	0.000	0.0
20100724 00:30	14.3	14.3	14.3	92	13.0	13	23	270	0.2	1016.4	0	0.000	0.0
20100724 00:35	14.3	14.3	14.3	92	13.0	11	21	270	0.0	1016.4	0	0.000	0.0
20100724 00:40	14.3	14.3	14.3	92	13.0	13	29	270	0.2	1016.5	0	0.000	0.0
20100724 00:45	14.2	14.2	14.2	92	12.9	13	21	270	0.0	1016.4	0	0.000	0.0
20100724 00:50	14.2	14.2	14.2	92	12.9	13	23	270	0.2	1016.4	0	0.000	0.0
20100724 00:55	14.1	14.1	14.1	92	12.8	14	26	248	0.0	1016.5	0	0.000	0.0
20100724 01:00	14.0	14.0	14.0	92	12.7	11	26	270	0.2	1016.5	0	0.025	0.0
20100724 01:05	13.9	13.9	13.9	92	12.7	13	24	270	0.0	1016.5	0	0.000	0.0
20100724 01:10	13.9	13.9	13.9	92	12.6	14	24	270	0.0	1016.4	0	0.000	0.0
20100724 01:15	13.8	13.8	13.8	92	12.5	14	26	270	0.0	1016.4	0	0.000	0.0
20100724 01:20	13.7	13.7	13.7	92	12.4	14	26	270	0.0	1016.5	0	0.000	0.0
20100724 01:25	13.7	13.7	13.7	91	12.3	14	24	270	0.0	1016.5	0	0.000	0.0
20100724 01:30	13.7	13.7	13.7	91	12.2	13	26	270	0.0	1016.5	0	0.000	0.0
20100724 01:35	13.7	13.7	13.7	91	12.2	16	35	270	0.0	1016.4	0	0.000	0.0
20100724 01:40	13.7	13.7	13.7	91	12.2	16	34	270	0.0	1016.4	0	0.000	0.0
20100724 01:45	13.6	13.6	13.6	91	12.2	13	26	270	0.0	1016.3	0	0.000	0.0
20100724 01:50	13.6	13.6	13.6	91	12.1	16	31	270	0.2	1016.4	0	0.000	0.0
20100724 01:55	13.5	13.5	13.5	91	12.1	18	32	270	0.0	1016.4	0	0.000	0.0
20100724 02:00	13.5	13.5	13.5	91	12.1	16	32	292	0.0	1016.3	0	0.025	0.0
20100724 02:05	13.4	13.4	13.4	91	12.0	14	29	270	0.2	1016.4	0	0.000	0.0
20100724 02:10	13.4	13.4	13.4	91	11.9	14	26	270	0.2	1016.3	0	0.000	0.0
20100724 02:15	13.3	13.3	13.3	91	11.8	19	31	270	0.2	1016.3	0	0.000	0.0
20100724 02:20	13.2	13.2	13.2	91	11.7	14	27	270	0.2	1016.3	0	0.000	0.0
20100724 02:25	13.1	13.1	13.1	91	11.7	18	29	270	0.0	1016.3	0	0.000	0.0
20100724 02:30	13.1	13.1	13.1	91	11.6	19	34	270	0.0	1016.3	0	0.000	0.0
20100724 02:35	12.9	12.9	12.9	91	11.5	18	34	270	0.0	1016.3	0	0.000	0.0
20100724 02:40	12.9	12.9	12.9	91	11.5	19	32	270	0.2	1016.4	0	0.000	0.0
20100724 02:45	12.8	12.8	12.8	91	11.3	16	34	270	0.0	1016.4	0	0.000	0.0
20100724 02:50	12.8	12.8	12.8	91	11.3	14	29	270	0.0	1016.5	0	0.000	0.0
20100724 02:55	12.7	12.7	12.7	91	11.3	18	31	270	0.0	1016.5	0	0.000	0.0
20100724 03:00	12.7	12.7	12.7	91	11.2	14	26	270	0.2	1016.4	0	0.025	0.0
20100724 03:05	12.7	12.7	12.7	91	11.2	14	34	270	0.0	1016.7	0	0.000	0.0
20100724 03:10	12.6	12.6	12.6	91	11.2	16	26	270	0.4	1016.7	0	0.000	0.0
20100724 03:15	12.6	12.6	12.6	91	11.2	13	21	270	0.0	1016.6	0	0.000	0.0
20100724 03:20	12.6	12.6	12.6	91	11.1	14	27	270	0.0	1016.5	0	0.000	0.0
20100724 03:25	12.6	12.6	12.6	91	11.1	14	24	270	0.2	1016.6	0	0.000	0.0
20100724 03:30	12.6	12.6	12.6	91	11.1	11	23	292	0.0	1016.6	0	0.000	0.0
20100724 03:35	12.6	12.6	12.6	91	11.1	14	23	270	0.0	1016.6	0	0.000	0.0
20100724 03:40	12.5	12.5	12.5	91	11.1	11	21	270	0.2	1016.6	0	0.000	0.0
20100724 03:45	12.5	12.5	12.5	91	11.1	13	23	292	0.2	1016.6	0	0.000	0.0
20100724 03:50	12.4	12.4	12.4	91	11.0	11	19	270	0.2	1016.7	0	0.000	0.0
20100724 03:55	12.4	12.4	12.4	92	11.2	10	21	270	0.2	1016.6	0	0.000	0.0
20100724 04:00	12.4	12.4	12.4	92	11.2	10	16	270	0.2	1016.7	0	0.025	0.0
20100724 04:05	12.4	12.4	12.4	92	11.2	11	21	270	0.2	1016.7	0	0.000	0.0
20100724 04:10	12.4	12.4	12.4	92	11.2	13	23	270	0.2	1016.6	0	0.000	0.0
20100724 04:15	12.4	12.4	12.4	92	11.2	8	18	270	0.2	1016.5	0	0.000	0.0
20100724 04:20	12.4	12.4	12.4	92	11.2	11	23	270	0.2	1016.5	0	0.000	0.0
20100724 04:25	12.4	12.4	12.4	92	11.2	13	24	248	0.2	1016.6	0	0.000	0.0
20100724 04:30	12.4	12.4	12.4	93	11.3	11	24	270	0.2	1016.5	0	0.000	0.0
20100724 04:35	12.4	12.4	12.4	92	11.2	11	24	270	0.2	1016.5	0	0.000	0.0
20100724 04:40	12.4	12.4	12.4	92	11.1	13	26	270	0.2	1016.5	0	0.000	0.0
20100724 04:45	12.4	12.4	12.4	92	11.1	11	19	270	0.4	1016.5	0	0.000	0.0
20100724 04:50	12.4	12.4	12.4	92	11.1	14	24	270	0.2	1016.4	0	0.000	0.0
20100724 04:55	12.4	12.4	12.4	93	11.3	11	23	270	0.2	1016.4	0	0.000	0.0
20100724 05:00	12.4	12.4	12.4	93	11.3	13	23	270	0.2	1016.5	0	0.025	0.0
20100724 05:05	12.4	12.4	12.4	93	11.3	13	27	270	0.2	1016.6	0	0.000	0.0
20100724 05:10	12.4	12.4	12.4	93	11.3	13	27	248	0.2	1016.5	0	0.000	0.0
20100724 05:15	12.4	12.4	12.4	93	11.3	13	23	270	0.2	1016.6	0	0.000	0.0
20100724 05:20	12.4	12.4	12.4	93	11.3	13	31	248	0.2	1016.5	0	0.000	0.0
20100724 05:25	12.4	12.4	12.4	93	11.3	14	24	270	0.2	1016.5	0	0.000	0.0
20100724 05:30	12.3	12.3	12.3	93	11.2	14	26	270	0.0	1016.5	0	0.000	0.0
20100724 05:35	12.3	12.3	12.3	93	11.2	13	23	270	0.2	1016.5	0	0.000	0.0
20100724 05:40	12.3	12.3	12.3	93	11.2	11	23	248	0.0	1016.5	0	0.000	0.0
20100724 05:45	12.3	12.3	12.3	93	11.2	14	27	270	0.0	1016.5	0	0.000	0.0
20100724 05:50	12.3	12.3	12.3	93	11.2	11	21	270	0.2	1016.5	0	0.000	0.0
20100724 05:55	12.3	12.3	12.3	93	11.2	13	24	270	0.0	1016.6	0	0.000	0.0
20100724 06:00	12.3	12.3	12.3	93	11.2	13	24	270	0.0	1016.6	0	0.000	0.0
20100724 06:05	12.3	12.3	12.3	93	11.2	14	26	270	0.2	1016.7	0	0.000	0.0
20100724 06:10	12.3	12.3	12.3	93	11.2	11	21	270	0.2	1016.6	0	0.000	0.0
20100724 06:15	12.4	12.4	12.4	93	11.3	11	23	270	0.0	1016.7	3	0.000	0.0
20100724 06:20	12.4	12.4	12.4	93	11.3	11	19	270	0.4	1016.7	4	0.000	0.0
20100724 06:25	12.4	12.4	12.4	93	11.3	10	19	270	0.0	1016.7	8	0.000	0.0
20100724 06:30	12.4	12.4	12.4	93	11.3	11	21	270	0.2	1016.7	8	0.000	0.0
20100724 06:35	12.4	12.4	12.4	93	11.3	13	24	292	0.2	1016.7	12	0.000	0.0
20100724 06:40	12.4	12.4	12.4	93	11.3	11	19	270	0.0	1016.8	16	0.000	0.0
20100724 06:45	12.4	12.4	12.4	93	11.3	11	19	292	0.2	1016.8	16	0.000	0.0
20100724 06:50	12.4	12.4	12.4	93	11.3	10	19	292	0.0	1016.8	18	0.000	0.0
20100724 06:55	12.4	12.4	12.4	93	11.3	13	24	292	0.2	1016.7	15	0.000	0.0
20100724 07:00	12.4	12.4	12.4	93	11.3	13	24	270	0.0	1016.7	16	0.025	0.0
20100724 07:05	12.4	12.4	12.4	93	11.3	11	19	292	0.2	1016.8	15	0.000	0.0
20100724 07:10	12.4	12.4	12.4	93	11.3	13	24	292	0.4	1016.9	13	0.000	0.0
20100724 07:15	12.4	12.4	12.4	93	11.3	13	24	270	0.4	1016.8	10	0.000	0.0
20100724 07:20	12.4	12.4	12.4	93	11.3	11	24	270	0.2	1016.7	13	0.000	0.0
20100724 07:25	12.4	12.4	12.4	93	11.3	11	21	270	0.2	1016.6	14	0.000	0.0
20100724 07:30	12.4	12.4	12.4	93	11.3	13	23	270	0.0	1016.7	22	0.000	0.0
20100724 07:35	12.4	12.4	12.4	93	11.3	14	26	292	0.2	1016.7	23	0.000	0.0
20100724 07:40	12.4	12.4	12.4	93	11.3	13	24	292	0.2	1016.6	17	0.000	0.0
20100724 07:45	12.4	12.4	12.4	93	11.3	10	19	292	0.0	1016.8	15	0.000	0.0
20100724 07:50	12.4	12.4	12.4	93	11.3	11	21	292	0.2	1016.7	27	0.000	0.0
20100724 07:55	12.4	12.4	12.4	93	11.3	13	23	292	0.2	1016.7	36	0.000	0.0
20100724 08:00	12.4	12.4	12.4	93	11.3	11	26	270	0.4	1016.6	51	0.025	0.0
20100724 08:05	12.5	12.5	12.5	93	11.4	11	23	292	0.0	1016.6	54	0.000	0.0
20100724 08:10	12.6	12.6	12.6	93	11.5	11	23	270	0.4	1016.6	42	0.000	0.0
20100724 08:15	12.5	12.5	12.5	93	11.4	16	29	292	0.2	1016.6	45	0.000	0.0
20100724 08:20	12.6	12.6	12.6	93	11.5	14	27	292	0.2	1016.6	71	0.000	0.0
20100724 08:25	12.6	12.6	12.6	93	11.5	16	23	292	0.2	1016.6	70	0.000	0.0
20100724 08:30	12.6	12.6	12.6	93	11.5	16	29	292	0.0	1016.6	89	0.000	0.3
20100724 08:35	12.6	12.6	12.6	93	11.5	19	29	292	0.0	1016.8	85	0.000	0.2
20100724 08:40	12.7	12.7	12.7	93	11.6	16	27	270	0.0	1016.8	92	0.000	0.4
20100724 08:45	12.7	12.7	12.7	93	11.6	18	27	292	0.2	1016.9	72	0.000	0.2
20100724 08:50	12.7	12.7	12.7	93	11.6	19	34	292	0.0	1017.0	48	0.000	0.0
20100724 08:55	12.6	12.6	12.6	93	11.5	16	26	270	0.0	1017.0	43	0.000	0.0
20100724 09:00	12.6	12.6	12.6	93	11.5	19	27	292	0.0	1017.0	42	0.051	0.0
20100724 09:05	12.6	12.6	12.6	93	11.5	16	29	292	0.2	1017.0	45	0.000	0.0
20100724 09:10	12.6	12.6	12.6	93	11.5	16	27	292	0.0	1017.1	45	0.000	0.0
20100724 09:15	12.6	12.6	12.6	93	11.5	16	27	292	0.0	1017.1	37	0.000	0.0
20100724 09:20	12.6	12.6	12.6	93	11.5	13	23	292	0.0	1017.2	35	0.000	0.0
20100724 09:25	12.6	12.6	12.6	93	11.5	13	24	270	0.0	1017.2	37	0.000	0.0
20100724 09:30	12.6	12.6	12.6	93	11.5	11	19	270	0.2	1017.2	45	0.000	0.0
20100724 09:35	12.6	12.6	12.6	93	11.5	13	23	292	0.0	1017.2	46	0.000	0.0
20100724 09:40	12.6	12.6	12.6	93	11.5	13	26	292	0.0	1017.2	37	0.000	0.0
20100724 09:45	12.6	12.6	12.6	93	11.5	10	19	292	0.2	1017.2	31	0.000	0.0
20100724 09:50	12.7	12.7	12.7	93	11.6	8	19	270	0.0	1017.2	29	0.000	0.0
20100724 09:55	12.7	12.7	12.7	93	11.6	6	11	270	0.0	1017.3	47	0.000	0.0
20100724 10:00	12.7	12.7	12.7	93	11.6	11	26	292	0.2	1017.2	70	0.025	0.5
20100724 10:05	12.7	12.7	12.7	93	11.6	11	18	292	0.0	1017.3	92	0.000	0.7
20100724 10:10	12.8	12.8	12.8	93	11.7	10	19	292	0.0	1017.3	106	0.000	0.9
20100724 10:15	12.8	12.8	12.8	93	11.7	11	21	292	0.0	1017.4	100	0.000	0.8
20100724 10:20	12.9	12.9	12.9	93	11.8	11	19	270	0.0	1017.3	105	0.000	0.9
20100724 10:25	12.9	12.9	12.9	93	11.8	13	21	292	0.0	1017.3	124	0.000	1.1
20100724 10:30	12.9	12.9	12.9	93	11.8	14	26	292	0.2	1017.4	124	0.000	1.1
20100724 10:35	13.0	13.0	13.0	93	11.9	11	21	292	0.0	1017.3	128	0.000	1.1
20100724 10:40	13.1	13.1	13.1	93	11.9	13	23	292	0.0	1017.3	128	0.000	1.1
20100724 10:45	13.1	13.1	13.1	93	12.0	10	19	292	0.0	1017.4	125	0.000	1.1
20100724 10:50	13.2	13.2	13.2	93	12.1	8	18	292	0.0	1017.5	114	0.000	1.0
20100724 10:55	13.1	13.1	13.1	92	11.8	13	21	292	0.0	1017.5	109	0.000	1.0
20100724 11:00	13.1	13.1	13.1	92	11.8	10	19	292	0.2	1017.5	84	0.076	0.8
20100724 11:05	13.1	13.1	13.1	92	11.8	13	21	270	0.0	1017.6	48	0.000	0.1
20100724 11:10	13.1	13.1	13.1	92	11.8	10	19	270	0.0	1017.6	45	0.000	0.0
20100724 11:15	13.0	13.0	13.0	92	11.7	14	26	270	0.2	1017.7	48	0.000	0.1
20100724 11:20	13.0	13.0	13.0	92	11.7	11	23	270	0.0	1017.7	75	0.000	0.7
20100724 11:25	13.1	13.1	13.1	92	11.8	13	23	292	0.2	1017.7	74	0.000	0.7
20100724 11:30	13.1	13.1	13.1	92	11.8	13	26	270	0.2	1017.6	83	0.000	0.8
20100724 11:35	13.1	13.1	13.1	92	11.8	14	26	292	0.2	1017.6	94	0.000	0.9
20100724 11:40	13.0	13.0	13.0	92	11.7	11	21	292	0.0	1017.7	79	0.000	0.8
20100724 11:45	13.1	13.1	13.1	92	11.8	10	18	270	0.0	1017.8	72	0.000	0.7
20100724 11:50	13.0	13.0	13.0	92	11.7	11	19	270	0.2	1017.8	94	0.000	0.9
20100724 11:55	13.1	13.1	13.1	92	11.8	13	21	270	0.0	1017.8	92	0.000	0.9
20100724 12:00	13.1	13.1	13.1	92	11.8	13	21	270	0.0	1017.9	89	0.051	0.9
20100724 12:05	13.1	13.1	13.1	92	11.8	13	23	292	0.2	1017.9	85	0.000	0.9
20100724 12:10	13.2	13.2	13.2	92	11.9	14	26	270	0.2	1017.9	100	0.000	1.0
20100724 12:15	13.2	13.2	13.2	92	11.9	13	24	270	0.0	1017.9	101	0.000	1.0
20100724 12:20	13.2	13.2	13.2	92	11.9	13	23	270	0.2	1018.0	101	0.000	1.0
20100724 12:25	13.2	13.2	13.2	92	11.9	16	32	270	0.0	1018.0	105	0.000	1.1
20100724 12:30	13.2	13.2	13.2	93	12.1	16	26	270	0.0	1018.0	120	0.000	1.3
20100724 12:35	13.3	13.3	13.3	92	12.0	18	29	270	0.2	1018.1	94	0.000	1.0
20100724 12:40	13.2	13.2	13.2	92	11.9	18	27	270	0.0	1018.0	99	0.000	1.0
20100724 12:45	13.2	13.2	13.2	92	11.9	16	26	270	0.0	1018.1	113	0.000	1.2
20100724 12:50	13.2	13.2	13.2	92	11.9	18	27	270	0.2	1018.0	79	0.000	0.8
20100724 12:55	13.2	13.2	13.2	92	11.9	18	27	270	0.0	1018.1	68	0.000	0.7
20100724 13:00	13.2	13.2	13.2	92	11.9	13	23	270	0.0	1018.1	52	0.051	0.2
20100724 13:05	13.2	13.2	13.2	92	11.9	18	32	270	0.0	1018.1	60	0.000	0.5
20100724 13:10	13.2	13.2	13.2	92	11.9	13	23	270	0.2	1018.0	56	0.000	0.3
20100724 13:15	13.2	13.2	13.2	92	11.9	14	26	270	0.0	1018.1	52	0.000	0.2
20100724 13:20	13.3	13.3	13.3	93	12.2	13	26	270	0.2	1018.1	78	0.000	0.9
20100724 13:25	13.3	13.3	13.3	93	12.2	14	24	292	0.0	1018.2	90	0.000	1.0
20100724 13:30	13.3	13.3	13.3	92	12.1	18	29	270	0.2	1018.0	98	0.000	1.1
20100724 13:35	13.3	13.3	13.3	92	12.1	16	26	270	0.0	1018.1	71	0.000	0.7
20100724 13:40	13.3	13.3	13.3	92	12.1	14	29	292	0.2	1018.1	66	0.000	0.7
20100724 13:45	13.3	13.3	13.3	93	12.2	14	24	270	0.0	1018.1	64	0.000	0.5
20100724 13:50	13.3	13.3	13.3	93	12.2	16	29	270	0.0	1018.1	57	0.000	0.4
20100724 13:55	13.3	13.3	13.3	93	12.2	16	26	292	0.2	1018.1	35	0.000	0.0
20100724 14:00	13.3	13.3	13.3	93	12.2	13	23	270	0.0	1018.0	50	0.051	0.0
20100724 14:05	13.3	13.3	13.3	93	12.2	13	24	292	0.0	1018.2	42	0.000	0.0
20100724 14:10	13.3	13.3	13.3	92	12.1	19	27	270	0.0	1018.1	58	0.000	0.3
20100724 14:15	13.3	13.3	13.3	92	12.1	18	29	270	0.0	1018.1	57	0.000	0.3
20100724 14:20	13.4	13.4	13.4	93	12.3	14	27	292	0.0	1018.2	99	0.000	1.0
20100724 14:25	13.4	13.4	13.4	92	12.2	18	34	292	0.0	1018.2	95	0.000	1.0
20100724 14:30	13.5	13.5	13.5	93	12.4	13	21	292	0.0	1018.1	73	0.000	0.7
20100724 14:35	13.6	13.6	13.6	93	12.4	16	29	270	0.0	1018.2	121	0.000	1.2
20100724 14:40	13.6	13.6	13.6	93	12.5	18	27	292	0.0	1018.1	125	0.000	1.3
20100724 14:45	13.7	13.7	13.7	92	12.4	18	31	292	0.0	1018.1	106	0.000	1.0
20100724 14:50	13.7	13.7	13.7	92	12.4	16	32	270	0.0	1018.0	132	0.000	1.3
20100724 14:55	13.7	13.7	13.7	92	12.4	19	29	270	0.0	1018.1	102	0.000	1.0
20100724 15:00	13.8	13.8	13.8	92	12.5	14	24	292	0.0	1018.2	134	0.051	1.3
20100724 15:05	13.8	13.8	13.8	92	12.6	14	26	292	0.0	1018.2	119	0.000	1.1
20100724 15:10	13.9	13.9	13.9	92	12.6	13	26	292	0.2	1018.3	122	0.000	1.1
20100724 15:15	13.9	13.9	13.9	92	12.6	13	23	270	0.0	1018.3	81	0.000	0.8
20100724 15:20	13.8	13.8	13.8	92	12.6	14	27	292	0.0	1018.4	49	0.000	0.2
20100724 15:25	13.8	13.8	13.8	92	12.5	14	24	292	0.2	1018.4	64	0.000	0.5
20100724 15:30	13.8	13.8	13.8	92	12.5	14	26	270	0.0	1018.4	82	0.000	0.8
20100724 15:35	13.8	13.8	13.8	92	12.5	13	23	292	0.2	1018.4	64	0.000	0.6
20100724 15:40	13.8	13.8	13.8	92	12.5	13	21	292	0.0	1018.4	71	0.000	0.6
20100724 15:45	13.8	13.8	13.8	92	12.5	13	26	292	0.4	1018.4	75	0.000	0.7
20100724 15:50	13.7	13.7	13.7	92	12.4	11	24	270	0.0	1018.4	89	0.000	0.8
20100724 15:55	13.7	13.7	13.7	92	12.4	13	23	248	0.2	1018.4	103	0.000	0.9
20100724 16:00	13.8	13.8	13.8	93	12.7	11	23	292	0.0	1018.4	115	0.051	1.0
20100724 16:05	13.8	13.8	13.8	93	12.7	13	24	270	0.0	1018.4	131	0.000	1.1
20100724 16:10	13.9	13.9	13.9	93	12.8	11	23	270	0.0	1018.5	131	0.000	1.1
20100724 16:15	13.9	13.9	13.9	93	12.8	11	21	270	0.0	1018.5	140	0.000	1.1
20100724 16:20	14.0	14.0	14.0	93	12.9	10	16	270	0.0	1018.5	142	0.000	1.1
20100724 16:25	14.1	14.1	14.1	92	12.8	11	24	292	0.0	1018.4	143	0.000	1.2
20100724 16:30	14.1	14.1	14.1	92	12.8	8	18	270	0.0	1018.5	148	0.000	1.2
20100724 16:35	14.2	14.2	14.2	92	12.9	11	23	270	0.0	1018.3	153	0.000	1.2
20100724 16:40	14.3	14.3	14.3	93	13.2	11	26	270	0.0	1018.3	181	0.000	1.4
20100724 16:45	14.4	14.4	14.4	92	13.1	11	23	270	0.0	1018.3	175	0.000	1.3
20100724 16:50	14.5	14.5	14.5	92	13.2	13	21	292	0.0	1018.3	158	0.000	1.2
20100724 16:55	14.6	14.6	14.6	92	13.3	11	23	270	0.0	1018.2	156	0.000	1.3
20100724 17:00	14.5	14.5	14.5	91	13.0	16	26	292	0.0	1018.2	100	0.076	0.8
20100724 17:05	14.4	14.4	14.4	91	13.0	10	23	270	0.0	1018.2	58	0.000	0.3
20100724 17:10	14.4	14.4	14.4	91	12.9	13	24	270	0.0	1018.2	64	0.000	0.4
20100724 17:15	14.3	14.3	14.3	91	12.9	13	23	292	0.0	1018.2	110	0.000	0.8
20100724 17:20	14.3	14.3	14.3	91	12.9	13	21	270	0.0	1018.2	97	0.000	0.7
20100724 17:25	14.3	14.3	14.3	91	12.9	10	21	270	0.0	1018.2	52	0.000	0.2
20100724 17:30	14.3	14.3	14.3	91	12.8	10	21	270	0.2	1018.0	22	0.000	0.0
20100724 17:35	14.2	14.2	14.2	91	12.7	13	24	270	0.0	1018.2	38	0.000	0.0
20100724 17:40	14.2	14.2	14.2	91	12.7	13	21	270	0.0	1018.2	50	0.000	0.0
20100724 17:45	14.2	14.2	14.2	92	12.9	10	23	292	0.0	1018.2	42	0.000	0.0
20100724 17:50	14.1	14.1	14.1	91	12.7	11	21	270	0.2	1018.3	36	0.000	0.0
20100724 17:55	14.1	14.1	14.1	91	12.6	11	19	292	0.0	1018.3	35	0.000	0.0
20100724 18:00	14.1	14.1	14.1	91	12.6	10	18	292	0.0	1018.3	36	0.051	0.0
20100724 18:05	14.0	14.0	14.0	91	12.6	11	23	270	0.0	1018.3	44	0.000	0.0
20100724 18:10	13.9	13.9	13.9	91	12.5	10	18	270	0.0	1018.3	51	0.000	0.0
20100724 18:15	14.0	14.0	14.0	91	12.6	11	21	292	0.0	1018.4	52	0.000	0.0
20100724 18:20	14.0	14.0	14.0	91	12.6	10	18	270	0.0	1018.3	51	0.000	0.0
20100724 18:25	14.1	14.1	14.1	91	12.6	11	26	292	0.2	1018.3	55	0.000	0.0
20100724 18:30	14.1	14.1	14.1	92	12.8	10	21	270	0.0	1018.2	65	0.000	0.0
20100724 18:35	14.1	14.1	14.1	91	12.7	11	21	248	0.0	1018.2	69	0.000	0.0
20100724 18:40	14.1	14.1	14.1	91	12.7	10	16	248	0.0	1018.2	68	0.000	0.0
20100724 18:45	14.2	14.2	14.2	92	12.9	10	23	248	0.0	1018.0	58	0.000	0.0
20100724 18:50	14.2	14.2	14.2	92	12.9	10	19	270	0.0	1018.0	49	0.000	0.0
20100724 18:55	14.2	14.2	14.2	92	12.9	11	23	270	0.0	1017.9	43	0.000	0.0
20100724 19:00	14.1	14.1	14.1	91	12.7	10	21	270	0.0	1018.1	50	0.051	0.0
20100724 19:05	14.1	14.1	14.1	91	12.7	10	18	270	0.0	1018.2	44	0.000	0.0
20100724 19:10	14.1	14.1	14.1	91	12.7	13	24	270	0.0	1018.2	43	0.000	0.0
20100724 19:15	14.1	14.1	14.1	91	12.7	13	27	270	0.0	1018.2	39	0.000	0.0
20100724 19:20	14.1	14.1	14.1	91	12.6	13	23	270	0.0	1018.2	37	0.000	0.0
20100724 19:25	14.1	14.1	14.1	91	12.6	13	19	248	0.0	1018.2	31	0.000	0.0
20100724 19:30	14.1	14.1	14.1	91	12.6	10	16	270	0.0	1018.3	28	0.000	0.0
20100724 19:35	14.0	14.0	14.0	91	12.6	10	16	270	0.0	1018.2	23	0.000	0.0
20100724 19:40	13.9	13.9	13.9	90	12.3	10	24	270	0.0	1018.2	15	0.000	0.0
20100724 19:45	13.9	13.9	13.9	90	12.3	10	21	248	0.0	1018.1	11	0.000	0.0
20100724 19:50	13.8	13.8	13.8	91	12.4	8	19	248	0.0	1018.2	7	0.000	0.0
20100724 19:55	13.8	13.8	13.8	91	12.3	10	18	270	0.0	1018.3	5	0.000	0.0
20100724 20:00	13.8	13.8	13.8	91	12.3	11	19	270	0.0	1018.3	5	0.025	0.0
20100724 20:05	13.7	13.7	13.7	91	12.3	11	19	270	0.0	1018.2	5	0.000	0.0
20100724 20:10	13.7	13.7	13.7	91	12.3	10	18	270	0.0	1018.2	3	0.000	0.0
20100724 20:15	13.7	13.7	13.7	91	12.3	8	16	270	0.0	1018.2	5	0.000	0.0
20100724 20:20	13.7	13.7	13.7	91	12.3	8	19	270	0.0	1018.2	6	0.000	0.0
20100724 20:25	13.8	13.8	13.8	91	12.3	8	16	270	0.0	1018.2	13	0.000	0.0
20100724 20:30	13.8	13.8	13.8	91	12.3	8	16	270	0.0	1018.2	15	0.000	0.0
20100724 20:35	13.8	13.8	13.8	91	12.3	10	18	270	0.0	1018.3	11	0.000	0.0
20100724 20:40	13.8	13.8	13.8	91	12.3	8	18	270	0.0	1018.2	8	0.000	0.0
20100724 20:45	13.8	13.8	13.8	91	12.3	10	19	248	0.0	1018.2	6	0.000	0.0
20100724 20:50	13.8	13.8	13.8	91	12.3	8	19	270	0.0	1018.2	3	0.000	0.0
20100724 20:55	13.8	13.8	13.8	91	12.3	10	19	248	0.0	1018.2	0	0.000	0.0
20100724 21:00	13.8	13.8	13.8	91	12.3	8	14	270	0.0	1018.2	0	0.025	0.0
20100724 21:05	13.8	13.8	13.8	91	12.3	6	14	270	0.0	1018.3	0	0.000	0.0
20100724 21:10	13.8	13.8	13.8	92	12.5	6	11	270	0.0	1018.3	0	0.000	0.0
20100724 21:15	13.8	13.8	13.8	92	12.5	8	14	270	0.0	1018.2	0	0.000	0.0
20100724 21:20	13.7	13.7	13.7	92	12.4	8	16	248	0.0	1018.2	0	0.000	0.0
20100724 21:25	13.7	13.7	13.7	91	12.3	8	18	248	0.0	1018.2	0	0.000	0.0
20100724 21:30	13.7	13.7	13.7	91	12.3	10	18	248	0.0	1018.2	0	0.000	0.0
20100724 21:35	13.7	13.7	13.7	92	12.4	8	16	270	0.0	1018.3	0	0.000	0.0
20100724 21:40	13.7	13.7	13.7	92	12.4	8	16	248	0.0	1018.4	0	0.000	0.0
20100724 21:45	13.7	13.7	13.7	92	12.4	6	16	270	0.0	1018.4	0	0.000	0.0
20100724 21:50	13.7	13.7	13.7	92	12.4	6	14	270	0.0	1018.4	0	0.000	0.0
20100724 21:55	13.7	13.7	13.7	92	12.4	6	13	270	0.0	1018.3	0	0.000	0.0
20100724 22:00	13.7	13.7	13.7	92	12.4	8	16	248	0.0	1018.3	0	0.000	0.0
20100724 22:05	13.7	13.7	13.7	92	12.4	8	18	248	0.0	1018.2	0	0.000	0.0
20100724 22:10	13.7	13.7	13.7	92	12.4	10	18	270	0.0	1018.2	0	0.000	0.0
20100724 22:15	13.7	13.7	13.7	92	12.4	10	16	248	0.0	1018.1	0	0.000	0.0
20100724 22:20	13.7	13.7	13.7	92	12.4	13	21	270	0.0	1018.2	0	0.000	0.0
20100724 22:25	13.7	13.7	13.7	92	12.4	13	23	270	0.0	1018.2	0	0.000	0.0
20100724 22:30	13.8	13.8	13.8	92	12.5	13	26	270	0.0	1018.2	0	0.000	0.0
20100724 22:35	13.8	13.8	13.8	92	12.6	11	24	270	0.0	1018.2	0	0.000	0.0
20100724 22:40	13.8	13.8	13.8	91	12.3	16	27	270	0.0	1018.1	0	0.000	0.0
20100724 22:45	13.8	13.8	13.8	91	12.3	11	21	270	0.0	1018.2	0	0.000	0.0
20100724 22:50	13.8	13.8	13.8	91	12.4	14	24	270	0.0	1018.1	0	0.000	0.0
20100724 22:55	13.8	13.8	13.8	91	12.4	11	21	270	0.0	1018.2	0	0.000	0.0
20100724 23:00	13.8	13.8	13.8	91	12.4	11	24	270	0.0	1018.2	0	0.025	0.0
20100724 23:05	13.8	13.8	13.8	91	12.3	10	18	270	0.0	1018.2	0	0.000	0.0
20100724 23:10	13.6	13.6	13.6	90	12.0	13	23	292	0.0	1018.1	0	0.000	0.0
20100724 23:15	13.6	13.6	13.6	90	11.9	10	18	270	0.0	1018.1	0	0.000	0.0
20100724 23:20	13.4	13.4	13.4	89	11.7	10	16	270	0.0	1018.0	0	0.000	0.0
20100724 23:25	13.4	13.4	13.4	89	11.6	10	16	270	0.0	1018.0	0	0.000	0.0
20100724 23:30	13.4	13.4	13.4	89	11.6	10	19	270	0.0	1018.1	0	0.000	0.0
20100724 23:35	13.3	13.3	13.3	89	11.6	8	16	270	0.0	1018.1	0	0.000	0.0
20100724 23:40	13.3	13.3	13.3	90	11.7	10	18	270	0.0	1018.1	0	0.000	0.0
20100724 23:45	13.2	13.2	13.2	90	11.6	10	18	270	0.0	1018.1	0	0.000	0.0
20100724 23:50	13.2	13.2	13.2	90	11.6	8	14	270	0.0	1018.2	0	0.000	0.0
20100724 23:55	13.1	13.1	13.1	90	11.5	8	16	270	0.0	1018.1	0	0.000	0.0



Please note the license to use and transfer of this data:
http://creativecommons.org/licenses/by-nc-sa/3.0/deed.en

Bitte beachten sie die Lizenz zur Verwertung und Weitergabe der Daten:
http://creativecommons.org/licenses/by-nc-sa/3.0/deed.de

zurück zur Übersicht der Archivdaten (Monats und Tagesdaten)

Cookies helfen bei der Bereitstellung von Inhalten. Durch die Nutzung dieser Seiten erklärst du dich damit einverstanden, dass Cookies auf deinem Rechner gespeichert werden. Weitere Information